createdAt,value
2019-03-16T00:02:00.438Z,9.16
2019-03-16T00:05:04.369Z,9.27
2019-03-16T00:08:08.691Z,9.17
2019-03-16T00:11:11.933Z,9.21
2019-03-16T00:14:15.183Z,9.33
2019-03-16T00:17:23.059Z,9.28
2019-03-16T00:20:24.145Z,9.31
2019-03-16T00:23:27.904Z,9.28
2019-03-16T00:26:30.854Z,9.30
2019-03-16T00:29:34.059Z,9.33
2019-03-16T00:32:37.435Z,9.29
2019-03-16T00:35:40.619Z,9.34
2019-03-16T00:38:44.246Z,9.27
2019-03-16T00:41:47.156Z,9.29
2019-03-16T00:44:50.104Z,9.36
2019-03-16T00:47:53.013Z,9.32
2019-03-16T00:50:55.937Z,9.37
2019-03-16T00:53:59.156Z,9.32
2019-03-16T00:57:02.076Z,9.24
2019-03-16T01:00:06.688Z,9.35
2019-03-16T01:03:09.813Z,9.28
2019-03-16T01:06:13.587Z,9.44
2019-03-16T01:09:16.946Z,9.47
2019-03-16T01:12:19.856Z,9.36
2019-03-16T01:15:22.800Z,9.38
2019-03-16T01:18:26.258Z,9.38
2019-03-16T01:21:30.073Z,9.38
2019-03-16T01:24:33.079Z,9.36
2019-03-16T01:27:36.030Z,9.27
2019-03-16T01:30:39.356Z,9.27
2019-03-16T01:33:42.498Z,9.21
2019-03-16T01:36:46.656Z,9.16
2019-03-16T01:39:50.161Z,9.27
2019-03-16T01:42:53.831Z,9.21
2019-03-16T01:45:57.434Z,9.26
2019-03-16T01:49:00.758Z,9.12
2019-03-16T01:52:04.031Z,9.19
2019-03-16T01:55:07.622Z,9.32
2019-03-16T01:58:12.341Z,9.22
2019-03-16T02:01:15.281Z,9.27
2019-03-16T02:04:18.208Z,9.16
2019-03-16T02:07:21.961Z,9.12
2019-03-16T02:10:25.126Z,9.18
2019-03-16T02:13:28.423Z,9.12
2019-03-16T02:16:32.295Z,9.11
2019-03-16T02:19:36.070Z,9.12
2019-03-16T02:22:39.189Z,9.00
2019-03-16T02:25:42.094Z,9.07
2019-03-16T02:28:45.290Z,9.08
2019-03-16T02:31:48.893Z,9.02
2019-03-16T02:34:52.517Z,8.99
2019-03-16T02:37:55.774Z,8.94
2019-03-16T02:40:59.301Z,9.00
2019-03-16T02:44:02.229Z,8.95
2019-03-16T02:47:05.260Z,8.91
2019-03-16T02:50:08.594Z,8.93
2019-03-16T02:53:11.534Z,8.91
2019-03-16T02:56:14.756Z,8.93
2019-03-16T02:59:18.695Z,8.81
2019-03-16T03:02:21.981Z,8.79
2019-03-16T03:05:24.936Z,8.73
2019-03-16T03:08:28.170Z,8.75
2019-03-16T03:11:31.663Z,8.82
2019-03-16T03:14:34.873Z,8.73
2019-03-16T03:17:38.509Z,8.77
2019-03-16T03:20:41.751Z,8.70
2019-03-16T03:23:44.665Z,8.67
2019-03-16T03:26:48.240Z,8.72
2019-03-16T03:29:51.582Z,8.83
2019-03-16T03:32:55.164Z,8.83
2019-03-16T03:35:58.622Z,8.74
2019-03-16T03:39:01.611Z,8.81
2019-03-16T03:42:05.157Z,8.78
2019-03-16T03:45:08.854Z,8.79
2019-03-16T03:48:11.789Z,8.68
2019-03-16T03:51:15.423Z,8.79
2019-03-16T03:54:18.619Z,8.68
2019-03-16T03:57:21.569Z,8.79
2019-03-16T04:00:25.115Z,8.59
2019-03-16T04:03:28.064Z,8.69
2019-03-16T04:06:31.088Z,8.63
2019-03-16T04:09:34.205Z,8.69
2019-03-16T04:12:37.497Z,8.58
2019-03-16T04:15:40.606Z,8.63
2019-03-16T04:18:43.974Z,8.44
2019-03-16T04:21:46.927Z,8.49
2019-03-16T04:24:50.253Z,8.54
2019-03-16T04:27:53.571Z,8.45
2019-03-16T04:30:56.486Z,8.52
2019-03-16T04:33:59.804Z,8.42
2019-03-16T04:37:03.042Z,8.47
2019-03-16T04:40:06.747Z,8.52
2019-03-16T04:43:10.352Z,8.41
2019-03-16T04:46:13.649Z,8.38
2019-03-16T04:49:16.942Z,8.28
2019-03-16T04:52:20.426Z,8.27
2019-03-16T04:55:23.634Z,8.24
2019-03-16T04:58:26.934Z,8.14
2019-03-16T05:01:29.857Z,8.26
2019-03-16T05:04:42.310Z,8.22
2019-03-16T05:07:38.223Z,8.24
2019-03-16T05:10:41.533Z,8.35
2019-03-16T05:13:45.038Z,8.30
2019-03-16T05:16:48.961Z,8.38
2019-03-16T05:19:52.224Z,8.46
2019-03-16T05:22:55.136Z,8.49
2019-03-16T05:25:58.078Z,8.43
2019-03-16T05:29:01.344Z,8.42
2019-03-16T05:32:04.272Z,8.26
2019-03-16T05:35:07.687Z,8.28
2019-03-16T05:38:10.963Z,8.27
2019-03-16T05:41:13.899Z,8.41
2019-03-16T05:44:16.820Z,8.33
2019-03-16T05:47:19.756Z,8.41
2019-03-16T05:50:23.369Z,8.31
2019-03-16T05:53:26.998Z,8.50
2019-03-16T05:56:30.640Z,8.34
2019-03-16T05:59:33.846Z,8.47
2019-03-16T06:02:37.149Z,8.46
2019-03-16T06:05:40.082Z,8.61
2019-03-16T06:08:43.016Z,8.50
2019-03-16T06:11:46.278Z,8.57
2019-03-16T06:14:49.208Z,8.56
2019-03-16T06:17:52.416Z,8.45
2019-03-16T06:20:55.996Z,8.56
2019-03-16T06:23:58.944Z,8.60
2019-03-16T06:27:01.882Z,8.75
2019-03-16T06:30:05.477Z,8.77
2019-03-16T06:33:08.818Z,8.61
2019-03-16T06:36:11.899Z,8.65
2019-03-16T06:39:15.244Z,8.72
2019-03-16T06:42:18.858Z,8.77
2019-03-16T06:45:22.243Z,8.77
2019-03-16T06:48:25.183Z,8.76
2019-03-16T06:51:28.418Z,8.73
2019-03-16T06:54:31.651Z,8.72
2019-03-16T06:57:34.582Z,8.79
2019-03-16T07:00:38.622Z,8.89
2019-03-16T07:03:41.950Z,8.95
2019-03-16T07:06:45.277Z,8.90
2019-03-16T07:09:48.213Z,8.73
2019-03-16T07:12:51.746Z,8.73
2019-03-16T07:15:55.354Z,8.88
2019-03-16T07:18:59.383Z,8.83
2019-03-16T07:22:02.657Z,8.65
2019-03-16T07:25:06.023Z,8.58
2019-03-16T07:28:09.343Z,8.64
2019-03-16T07:31:12.629Z,8.59
2019-03-16T07:34:15.584Z,8.66
2019-03-16T07:37:18.851Z,8.61
2019-03-16T07:40:22.165Z,8.66
2019-03-16T07:43:25.847Z,8.70
2019-03-16T07:46:29.448Z,8.58
2019-03-16T07:49:32.740Z,8.56
2019-03-16T07:52:35.657Z,8.73
2019-03-16T07:55:42.013Z,8.69
2019-03-16T07:58:44.136Z,8.79
2019-03-16T08:01:47.425Z,8.91
2019-03-16T08:04:51.196Z,8.89
2019-03-16T08:07:54.121Z,8.93
2019-03-16T08:10:57.882Z,8.99
2019-03-16T08:14:01.170Z,9.03
2019-03-16T08:17:04.488Z,9.12
2019-03-16T08:20:07.825Z,9.23
2019-03-16T08:23:11.332Z,9.19
2019-03-16T08:26:14.642Z,9.35
2019-03-16T08:29:17.912Z,9.25
2019-03-16T08:32:21.602Z,9.39
2019-03-16T08:35:25.649Z,9.47
2019-03-16T08:38:28.893Z,9.42
2019-03-16T08:41:32.450Z,9.53
2019-03-16T08:44:35.654Z,9.56
2019-03-16T08:47:39.224Z,9.60
2019-03-16T08:50:42.146Z,9.59
2019-03-16T08:53:45.766Z,9.71
2019-03-16T08:56:49.212Z,9.61
2019-03-16T08:59:52.524Z,9.69
2019-03-16T09:02:55.495Z,9.73
2019-03-16T09:05:59.421Z,9.71
2019-03-16T09:09:03.977Z,9.69
2019-03-16T09:12:06.902Z,9.71
2019-03-16T09:15:10.653Z,9.75
2019-03-16T09:18:13.585Z,9.79
2019-03-16T09:21:16.787Z,9.72
2019-03-16T09:24:19.803Z,9.84
2019-03-16T09:27:31.116Z,9.78
2019-03-16T09:30:28.242Z,9.72
2019-03-16T09:33:31.949Z,9.77
2019-03-16T09:36:34.981Z,9.74
2019-03-16T09:39:37.925Z,9.83
2019-03-16T09:42:40.961Z,9.81
2019-03-16T09:45:44.253Z,9.89
2019-03-16T09:48:47.814Z,9.92
2019-03-16T09:51:51.397Z,10.02
2019-03-16T09:54:54.693Z,9.98
2019-03-16T09:57:58.747Z,10.02
2019-03-16T10:01:02.046Z,10.03
2019-03-16T10:04:05.402Z,9.89
2019-03-16T10:07:08.714Z,9.91
2019-03-16T10:10:11.707Z,9.83
2019-03-16T10:13:14.611Z,9.85
2019-03-16T10:16:17.549Z,9.90
2019-03-16T10:19:21.485Z,9.88
2019-03-16T10:22:24.691Z,9.90
2019-03-16T10:25:27.979Z,10.05
2019-03-16T10:28:42.972Z,10.20
2019-03-16T10:31:36.799Z,10.18
2019-03-16T10:34:39.995Z,10.19
2019-03-16T10:37:42.940Z,10.14
2019-03-16T10:40:45.956Z,10.28
2019-03-16T10:43:49.701Z,10.31
2019-03-16T10:46:53.277Z,10.37
2019-03-16T10:49:56.476Z,10.26
2019-03-16T10:52:59.450Z,10.41
2019-03-16T10:56:02.349Z,10.34
2019-03-16T10:59:05.542Z,10.40
2019-03-16T11:02:08.741Z,10.34
2019-03-16T11:05:12.110Z,10.34
2019-03-16T11:08:15.300Z,10.35
2019-03-16T11:11:18.244Z,10.35
2019-03-16T11:14:22.142Z,10.37
2019-03-16T11:17:25.085Z,10.47
2019-03-16T11:20:28.022Z,10.43
2019-03-16T11:23:30.960Z,10.53
2019-03-16T11:26:34.197Z,10.60
2019-03-16T11:29:37.123Z,10.47
2019-03-16T11:32:40.336Z,10.37
2019-03-16T11:35:43.596Z,10.54
2019-03-16T11:38:46.529Z,10.37
2019-03-16T11:41:49.762Z,10.34
2019-03-16T11:44:53.759Z,10.43
2019-03-16T11:47:56.960Z,10.33
2019-03-16T11:50:59.927Z,10.39
2019-03-16T11:54:03.534Z,10.40
2019-03-16T11:57:06.515Z,10.47
2019-03-16T12:00:09.919Z,10.57
2019-03-16T12:03:13.316Z,10.47
2019-03-16T12:06:16.575Z,10.39
2019-03-16T12:09:20.116Z,10.50
2019-03-16T12:12:23.787Z,10.43
2019-03-16T12:15:26.790Z,10.61
2019-03-16T12:18:30.012Z,10.38
2019-03-16T12:21:32.980Z,10.44
2019-03-16T12:24:36.826Z,10.47
2019-03-16T12:27:40.201Z,10.47
2019-03-16T12:30:43.501Z,10.52
2019-03-16T12:33:46.430Z,10.54
2019-03-16T12:36:49.368Z,10.43
2019-03-16T12:39:53.313Z,10.52
2019-03-16T12:42:56.595Z,10.65
2019-03-16T12:45:59.795Z,10.55
2019-03-16T12:49:03.907Z,10.53
2019-03-16T12:52:08.195Z,10.50
2019-03-16T12:55:11.148Z,10.49
2019-03-16T12:58:14.410Z,10.48
2019-03-16T13:01:17.311Z,10.37
2019-03-16T13:04:20.894Z,10.49
2019-03-16T13:07:25.014Z,10.49
2019-03-16T13:10:27.961Z,10.40
2019-03-16T13:13:31.198Z,10.40
2019-03-16T13:16:34.100Z,10.46
2019-03-16T13:19:37.036Z,10.41
2019-03-16T13:22:41.064Z,10.49
2019-03-16T13:25:44.348Z,10.47
2019-03-16T13:28:47.280Z,10.42
2019-03-16T13:31:50.831Z,10.38
2019-03-16T13:34:54.157Z,10.39
2019-03-16T13:37:57.079Z,10.46
2019-03-16T13:41:00.482Z,10.39
2019-03-16T13:44:03.763Z,10.40
2019-03-16T13:47:06.696Z,10.46
2019-03-16T13:50:10.780Z,10.48
2019-03-16T13:53:14.407Z,10.47
2019-03-16T13:56:17.689Z,10.42
2019-03-16T13:59:21.244Z,10.43
2019-03-16T14:02:24.489Z,10.52
2019-03-16T14:05:27.797Z,10.51
2019-03-16T14:08:31.317Z,10.50
2019-03-16T14:11:34.604Z,10.61
2019-03-16T14:14:37.509Z,10.57
2019-03-16T14:17:40.428Z,10.54
2019-03-16T14:20:43.700Z,10.51
2019-03-16T14:23:48.468Z,10.63
2019-03-16T14:26:51.707Z,10.53
2019-03-16T14:29:54.618Z,10.68
2019-03-16T14:32:57.951Z,10.54
2019-03-16T14:36:01.322Z,10.57
2019-03-16T14:39:06.892Z,10.56
2019-03-16T14:42:10.496Z,10.54
2019-03-16T14:45:13.837Z,10.53
2019-03-16T14:48:17.571Z,10.59
2019-03-16T14:51:20.871Z,10.65
2019-03-16T14:54:23.946Z,10.71
2019-03-16T14:57:27.838Z,10.69
2019-03-16T15:00:38.391Z,10.69
2019-03-16T15:03:36.330Z,10.74
2019-03-16T15:06:39.556Z,10.74
2019-03-16T15:09:42.502Z,10.83
2019-03-16T15:12:45.421Z,10.71
2019-03-16T15:15:48.357Z,10.80
2019-03-16T15:18:51.371Z,10.71
2019-03-16T15:21:54.326Z,10.69
2019-03-16T15:24:57.632Z,10.70
2019-03-16T15:28:00.547Z,10.79
2019-03-16T15:31:03.474Z,10.72
2019-03-16T15:34:06.511Z,10.71
2019-03-16T15:37:09.470Z,10.73
2019-03-16T15:40:12.765Z,10.73
2019-03-16T15:43:15.977Z,10.75
2019-03-16T15:46:18.904Z,10.66
2019-03-16T15:49:22.208Z,10.71
2019-03-16T15:52:25.832Z,10.68
2019-03-16T15:55:29.211Z,10.64
2019-03-16T15:58:32.132Z,10.72
2019-03-16T16:01:35.437Z,10.72
2019-03-16T16:04:38.991Z,10.69
2019-03-16T16:07:42.589Z,10.71
2019-03-16T16:10:45.886Z,10.76
2019-03-16T16:13:49.109Z,10.78
2019-03-16T16:16:52.028Z,10.78
2019-03-16T16:19:55.371Z,10.76
2019-03-16T16:22:58.316Z,10.73
2019-03-16T16:26:02.289Z,10.84
2019-03-16T16:29:05.276Z,10.75
2019-03-16T16:32:08.581Z,10.77
2019-03-16T16:35:11.798Z,10.75
2019-03-16T16:38:15.132Z,10.82
2019-03-16T16:41:18.423Z,10.76
2019-03-16T16:44:21.448Z,10.72
2019-03-16T16:47:24.821Z,10.71
2019-03-16T16:50:27.761Z,10.64
2019-03-16T16:53:31.020Z,10.70
2019-03-16T16:56:33.990Z,10.66
2019-03-16T16:59:36.897Z,10.71
2019-03-16T17:02:40.202Z,10.64
2019-03-16T17:05:43.659Z,10.68
2019-03-16T17:08:46.891Z,10.64
2019-03-16T17:11:49.822Z,10.62
2019-03-16T17:14:54.139Z,10.66
2019-03-16T17:17:57.072Z,10.60
2019-03-16T17:21:00.357Z,10.62
2019-03-16T17:24:03.572Z,10.66
2019-03-16T17:27:07.190Z,10.69
2019-03-16T17:30:13.778Z,10.65
2019-03-16T17:33:18.129Z,10.63
2019-03-16T17:36:22.320Z,10.66
2019-03-16T17:39:26.540Z,10.63
2019-03-16T17:42:29.781Z,10.61
2019-03-16T17:45:33.150Z,10.54
2019-03-16T17:48:36.082Z,10.60
2019-03-16T17:51:39.017Z,10.62
2019-03-16T17:54:43.044Z,10.60
2019-03-16T17:57:45.993Z,10.62
2019-03-16T18:00:49.228Z,10.57
2019-03-16T18:03:52.468Z,10.59
2019-03-16T18:06:55.407Z,10.59
2019-03-16T18:09:58.777Z,10.57
2019-03-16T18:13:02.054Z,10.60
2019-03-16T18:16:05.669Z,10.60
2019-03-16T18:19:08.584Z,10.58
2019-03-16T18:22:11.603Z,10.57
2019-03-16T18:25:14.515Z,10.62
2019-03-16T18:28:17.453Z,10.61
2019-03-16T18:31:21.309Z,10.60
2019-03-16T18:34:25.338Z,10.65
2019-03-16T18:37:28.948Z,10.63
2019-03-16T18:40:32.139Z,10.57
2019-03-16T18:43:35.892Z,10.59
2019-03-16T18:46:39.152Z,10.54
2019-03-16T18:49:42.090Z,10.62
2019-03-16T18:52:45.403Z,10.66
2019-03-16T18:55:48.318Z,10.61
2019-03-16T18:58:51.650Z,10.66
2019-03-16T19:01:55.105Z,10.62
2019-03-16T19:04:58.427Z,10.59
2019-03-16T19:08:01.697Z,10.62
2019-03-16T19:11:04.721Z,10.61
2019-03-16T19:14:07.939Z,10.60
2019-03-16T19:17:11.235Z,10.62
2019-03-16T19:20:14.447Z,10.59
2019-03-16T19:23:17.907Z,10.59
2019-03-16T19:26:20.810Z,10.67
2019-03-16T19:29:24.256Z,10.66
2019-03-16T19:32:33.658Z,10.64
2019-03-16T19:35:32.547Z,10.62
2019-03-16T19:38:35.869Z,10.64
2019-03-16T19:41:41.459Z,10.64
2019-03-16T19:44:44.752Z,10.59
2019-03-16T19:47:47.690Z,10.64
2019-03-16T19:50:50.913Z,10.61
2019-03-16T19:53:54.308Z,10.59
2019-03-16T19:56:57.555Z,10.62
2019-03-16T20:00:00.506Z,10.67
2019-03-16T20:03:03.410Z,10.62
2019-03-16T20:06:06.674Z,10.64
2019-03-16T20:09:09.870Z,10.58
2019-03-16T20:12:12.804Z,10.59
2019-03-16T20:15:16.127Z,10.57
2019-03-16T20:18:19.171Z,10.56
2019-03-16T20:21:22.108Z,10.60
2019-03-16T20:24:25.384Z,10.55
2019-03-16T20:27:28.723Z,10.51
2019-03-16T20:30:31.664Z,10.51
2019-03-16T20:33:35.024Z,10.52
2019-03-16T20:36:38.641Z,10.52
2019-03-16T20:39:41.879Z,10.53
2019-03-16T20:42:45.890Z,10.49
2019-03-16T20:45:49.047Z,10.49
2019-03-16T20:48:52.758Z,10.49
2019-03-16T20:51:55.696Z,10.49
2019-03-16T20:54:58.863Z,10.53
2019-03-16T20:58:02.366Z,10.51
2019-03-16T21:01:05.282Z,10.47
2019-03-16T21:04:08.964Z,10.49
2019-03-16T21:07:13.221Z,10.47
2019-03-16T21:10:16.167Z,10.43
2019-03-16T21:13:19.083Z,10.49
2019-03-16T21:16:23.223Z,10.52
2019-03-16T21:19:26.164Z,10.49
2019-03-16T21:22:35.497Z,10.52
2019-03-16T21:25:34.999Z,10.48
2019-03-16T21:28:37.951Z,10.48
2019-03-16T21:31:41.612Z,10.49
2019-03-16T21:34:44.568Z,10.49
2019-03-16T21:37:47.820Z,10.47
2019-03-16T21:40:51.795Z,10.47
2019-03-16T21:43:55.063Z,10.47
2019-03-16T21:46:58.370Z,10.41
2019-03-16T21:50:01.567Z,10.48
2019-03-16T21:53:05.089Z,10.52
2019-03-16T21:56:08.089Z,10.53
2019-03-16T21:59:11.753Z,10.55
2019-03-16T22:02:14.709Z,10.46
2019-03-16T22:05:17.921Z,10.54
2019-03-16T22:08:20.904Z,10.48
2019-03-16T22:11:24.166Z,10.48
2019-03-16T22:14:27.754Z,10.50
2019-03-16T22:17:30.936Z,10.57
2019-03-16T22:20:34.550Z,10.51
2019-03-16T22:23:37.959Z,10.51
2019-03-16T22:26:41.655Z,10.50
2019-03-16T22:29:44.945Z,10.46
2019-03-16T22:32:48.352Z,10.50
2019-03-16T22:35:51.298Z,10.50
2019-03-16T22:38:54.924Z,10.47
2019-03-16T22:41:57.830Z,10.46
2019-03-16T22:45:01.393Z,10.45
2019-03-16T22:48:04.814Z,10.47
2019-03-16T22:51:08.116Z,10.41
2019-03-16T22:54:11.916Z,10.48
2019-03-16T22:57:14.854Z,10.47
2019-03-16T23:00:20.468Z,10.48
2019-03-16T23:03:25.324Z,10.51
2019-03-16T23:06:29.475Z,10.45
2019-03-16T23:09:32.594Z,10.45
2019-03-16T23:12:35.886Z,10.48
2019-03-16T23:15:39.026Z,10.52
2019-03-16T23:18:41.930Z,10.49
2019-03-16T23:21:46.444Z,10.49
2019-03-16T23:24:50.055Z,10.50
2019-03-16T23:27:53.695Z,10.45
2019-03-16T23:30:56.715Z,10.47
2019-03-16T23:33:59.756Z,10.53
2019-03-16T23:37:02.808Z,10.49
2019-03-16T23:40:06.077Z,10.51
2019-03-16T23:43:09.656Z,10.52
2019-03-16T23:46:12.588Z,10.56
2019-03-16T23:49:15.493Z,10.57
2019-03-16T23:52:19.203Z,10.61
2019-03-16T23:55:22.133Z,10.61
2019-03-16T23:58:25.320Z,10.62
